METAR stanice u blizini

 

LYBE - Beograd / Surčin, Srbija
Ažurirano: 19/07/2024 19:30
Vedro
Vedro
 Pravac vetra SSI
Vetar: SSI 9 km/h
Temperatura: 33°C
Heat Index: 34°C
Tačka rose: 18°C
Vlažnost: 41%
Pritisak: 1012 hPa
Pregled: Vedro
Vidljivost: greater than 10 km
2024/07/19 17:30 LYBE 191730Z 03005KT CAVOK 33/18 Q1012 NOSIG
LYBT - Beograd / Batajnica, Srbija
Ažurirano: 19/07/2024 19:30
Vedro
Vedro
 Pravac vetra SSI
Vetar: SSI 11 km/h
Temperatura: 33°C
Tačka rose: 17°C
Vlažnost: 38%
Pritisak: 1012 hPa
Pregled: Vedro
Vidljivost: greater than 10 km
2024/07/19 17:30 LYBT 191730Z 02006KT CAVOK 33/17 Q1012 NOSIG
LYVR - Vršac, Srbija
Ažurirano: 19/07/2024 19:30
Vedro
Vedro
 Pravac vetra SI
Vetar: SI 11 km/h
Temperatura: 32°C
Heat Index: 34°C
Tačka rose: 19°C
Vlažnost: 46%
Pritisak: 1012 hPa
Pregled: Vedro
Vidljivost: greater than 10 km
2024/07/19 17:30 LYVR 191730Z AUTO 04006KT CAVOK 32/19 Q1012
 
LYKV - Lađevci, Srbija
Ažurirano: 19/07/2024 19:30
Few Clouds
Few Clouds
 Pravac vetra varies
Vetar: varies 2 km/h
Temperatura: 27°C
Heat Index: 29°C
Tačka rose: 21°C
Vlažnost: 70%
Pritisak: 1013 hPa
Oblaci: Few Clouds
Vidljivost: 10 km
Cloud details: Few Clouds 1524 m
2024/07/19 17:30 LYKV 191730Z VRB01KT 9999 FEW050 27/21 Q1013 NOSIG
LYNI - Niš, Srbija
Ažurirano: 19/07/2024 19:30
Vedro
Vedro
 Pravac vetra SSI
Vetar: SSI 11 km/h
Temperatura: 32°C
Heat Index: 33°C
Tačka rose: 18°C
Vlažnost: 43%
Pritisak: 1013 hPa
Pregled: Vedro
Vidljivost: greater than 10 km
2024/07/19 17:30 LYNI 191730Z 03006KT 350V050 CAVOK 32/18 Q1013 NOSIG
BKPR - Priština, Srbija
Ažurirano: 19/07/2024 20:00
Vedro
Vedro
 Pravac vetra SZ
Vetar: SZ 9 km/h
Temperatura: 30°C
Heat Index: 31°C
Tačka rose: 18°C
Vlažnost: 49%
Pritisak: 1015 hPa
Pregled: Vedro
Vidljivost: greater than 10 km
2024/07/19 18:00 BKPR 191800Z 32005KT CAVOK 30/18 Q1015 NOSIG
 
LHPP - Pecs / Pogany, Hungary
Ažurirano: 19/07/2024 19:15
Vedro
Vedro
 Pravac vetra SI
Vetar: SI 13 km/h
Temperatura: 32°C
Heat Index: 33°C
Tačka rose: 17°C
Vlažnost: 41%
Pritisak: 1014 hPa
Pregled: Vedro
Vidljivost: greater than 10 km
2024/07/19 17:15 LHPP 191715Z AUTO 05007KT CAVOK 32/17 Q1014
LHUD - Szeged, Hungary
Ažurirano: 04/07/2019 01:45
NOT Current
Vedro
Vedro
 Pravac vetra S
Vetar: S 7 km/h
Temperatura: 18°C
Tačka rose: 13°C
Vlažnost: 73%
Pritisak: 1019 hPa
Pregled: Vedro
Vidljivost: greater than 10 km
2019/07/03 23:45 LHUD 032345Z 35004KT CAVOK 18/13 Q1019
LRTR - Timisoara, Romania
Ažurirano: 19/07/2024 19:30
Vedro
Vedro
 Pravac vetra S
Vetar: S 22 km/h
Temperatura: 31°C
Tačka rose: 15°C
Vlažnost: 38%
Pritisak: 1013 hPa
Pregled: Vedro
Vidljivost: greater than 10 km
2024/07/19 17:30 LRTR 191730Z 36012KT CAVOK 31/15 Q1013
 
LRCV - Craiova, Romania
Ažurirano: 19/07/2024 19:30
Vedro
Vedro
 Pravac vetra JJI
Vetar: JJI 6 km/h
Temperatura: 33°C
Tačka rose: 17°C
Vlažnost: 38%
Pritisak: 1012 hPa
Pregled: Vedro
Vidljivost: greater than 10 km
2024/07/19 17:30 LRCV 191730Z 16003KT CAVOK 33/17 Q1012
LBSF - Sofia, Bulgaria
Ažurirano: 19/07/2024 20:00
Vedro
Vedro
 Pravac vetra I
Vetar: I 9 km/h
Temperatura: 28°C
Heat Index: 28°C
Tačka rose: 16°C
Vlažnost: 48%
Pritisak: 1015 hPa
Oblaci: Vedro
Vidljivost: 10 km
2024/07/19 18:00 LBSF 191800Z AUTO 08005KT 040V100 9999 NCD 28/16 Q1015 NOSIG
LWSK - Skoplje, Makedonija
Ažurirano: 19/07/2024 19:50
Few Clouds
Few Clouds
 Pravac vetra J
Vetar: J 7 km/h
Temperatura: 29°C
Heat Index: 29°C
Tačka rose: 18°C
Vlažnost: 51%
Pritisak: 1012 hPa
Oblaci: Few Clouds
Vidljivost: 10 km
Cloud details: Few Clouds 1829 m
2024/07/19 17:50 LWSK 191750Z 17004KT 130V200 9999 FEW060 29/18 Q1012 NOSIG
 
LYPG - Podgorica, Crna Gora
Ažurirano: 19/07/2024 19:30
Vedro
Vedro
 Pravac vetra SSZ
Vetar: SSZ 17 km/h
Temperatura: 33°C
Heat Index: 34°C
Tačka rose: 19°C
Vlažnost: 44%
Pritisak: 1010 hPa
Pregled: Vedro
Vidljivost: greater than 10 km
2024/07/19 17:30 LYPG 191730Z 34009KT CAVOK 33/19 Q1010 NOSIG
LQSA - Sarajevo, Bosna i Hercegovina
Ažurirano: 19/07/2024 19:30
Thunderstorm rain, Pretežno oblačno
Thunderstorm rain, Pretežno oblačno
 Pravac vetra varies
Vetar: varies 7 km/h
Temperatura: 24°C
Tačka rose: 20°C
Vlažnost: 78%
Pritisak: 1015 hPa
Pregled: Thunderstorm Rain
Oblaci: Mostly Cloudy
Vidljivost: 10 km
Cloud details: Few Clouds 1219 m
Mostly Cloudy 1524 m
2024/07/19 17:30 LQSA 191730Z VRB04KT 9999 5000W TSRA FEW040CB BKN050 24/20 Q1015 NOSIG
LDOS - Osijek, Hrvatksa
Ažurirano: 19/07/2024 20:00
Vedro
Vedro
 Pravac vetra S
Vetar: S 9 km/h
Temperatura: 30°C
Heat Index: 32°C
Tačka rose: 20°C
Vlažnost: 55%
Pritisak: 1013 hPa
Pregled: Vedro
Vidljivost: greater than 10 km
2024/07/19 18:00 LDOS 191800Z 35005KT CAVOK 30/20 Q1013